createdAt,value
2023-05-01T00:00:16.234Z,12.70
2023-05-01T00:05:46.277Z,8.50
2023-05-01T00:10:56.259Z,4.80
2023-05-01T00:16:11.732Z,8.80
2023-05-01T00:21:21.551Z,18.00
2023-05-01T00:26:32.452Z,16.40
2023-05-01T00:31:43.145Z,7.50
2023-05-01T00:36:52.892Z,14.10
2023-05-01T00:42:02.488Z,8.20
2023-05-01T00:47:12.526Z,6.20
2023-05-01T00:52:22.176Z,9.10
2023-05-01T00:57:32.572Z,7.20
2023-05-01T01:02:42.533Z,6.00
2023-05-01T01:08:01.001Z,4.30
2023-05-01T01:13:21.283Z,5.10
2023-05-01T01:18:42.718Z,5.30
2023-05-01T01:24:22.975Z,4.70
2023-05-01T01:29:58.379Z,4.90
2023-05-01T01:35:14.474Z,3.10
2023-05-01T01:40:31.604Z,4.50
2023-05-01T01:45:45.029Z,5.30
2023-05-01T01:50:59.107Z,4.90
2023-05-01T01:56:11.054Z,3.80
2023-05-01T02:01:23.302Z,3.60
2023-05-01T02:06:35.434Z,3.30
2023-05-01T02:11:46.758Z,3.00
2023-05-01T02:16:59.059Z,3.80
2023-05-01T02:22:11.159Z,3.60
2023-05-01T02:27:25.884Z,3.30
2023-05-01T02:32:35.927Z,3.50
2023-05-01T02:37:46.436Z,4.50
2023-05-01T02:42:57.196Z,4.20
2023-05-01T02:48:09.704Z,5.90
2023-05-01T02:53:19.814Z,7.10
2023-05-01T02:58:32.729Z,8.30
2023-05-01T03:03:42.377Z,5.00
2023-05-01T03:08:52.145Z,4.80
2023-05-01T03:14:01.974Z,4.70
2023-05-01T03:19:11.610Z,4.90
2023-05-01T03:24:21.338Z,3.60
2023-05-01T03:29:31.467Z,3.30
2023-05-01T03:34:41.532Z,3.60
2023-05-01T03:39:51.706Z,4.60
2023-05-01T03:45:01.666Z,2.70
2023-05-01T03:50:14.905Z,3.00
2023-05-01T03:55:24.840Z,3.10
2023-05-01T04:00:35.667Z,3.30
2023-05-01T04:05:45.615Z,3.60
2023-05-01T04:10:55.391Z,3.30
2023-05-01T04:16:05.390Z,3.10
2023-05-01T04:21:18.077Z,3.90
2023-05-01T04:26:28.425Z,3.90
2023-05-01T04:31:38.345Z,3.80
2023-05-01T04:36:48.094Z,4.30
2023-05-01T04:41:58.132Z,4.00
2023-05-01T04:47:08.745Z,5.30
2023-05-01T04:52:18.582Z,7.80
2023-05-01T04:57:28.167Z,4.90
2023-05-01T05:02:37.940Z,5.20
2023-05-01T05:07:47.580Z,4.60
2023-05-01T05:12:57.539Z,4.70
2023-05-01T05:18:07.572Z,4.10
2023-05-01T05:23:17.363Z,5.90
2023-05-01T05:28:27.473Z,7.70
2023-05-01T05:33:37.291Z,11.70
2023-05-01T05:38:47.508Z,10.80
2023-05-01T05:43:57.232Z,4.10
2023-05-01T05:49:07.005Z,2.30
2023-05-01T05:54:16.835Z,4.60
2023-05-01T05:59:26.787Z,4.70
2023-05-01T06:04:36.698Z,4.50
2023-05-01T06:09:46.324Z,5.10
2023-05-01T06:14:56.079Z,3.30
2023-05-01T06:20:07.136Z,2.20
2023-05-01T06:25:17.629Z,2.50
2023-05-01T06:30:27.341Z,3.00
2023-05-01T06:35:37.167Z,2.60
2023-05-01T06:40:47.775Z,2.10
2023-05-01T06:45:57.360Z,2.60
2023-05-01T06:51:07.424Z,3.90
2023-05-01T06:56:17.634Z,4.30
2023-05-01T07:01:27.507Z,1.90
2023-05-01T07:06:37.722Z,3.00
2023-05-01T07:11:47.699Z,2.60
2023-05-01T07:16:58.802Z,2.60
2023-05-01T07:22:08.614Z,5.70
2023-05-01T07:27:18.252Z,3.00
2023-05-01T07:32:28.120Z,3.00
2023-05-01T07:37:37.781Z,2.80
2023-05-01T07:42:47.387Z,1.90
2023-05-01T07:47:57.581Z,2.70
2023-05-01T07:53:07.706Z,4.10
2023-05-01T07:58:17.780Z,3.50
2023-05-01T08:03:29.901Z,4.10
2023-05-01T08:08:39.864Z,2.70
2023-05-01T08:13:49.731Z,4.30
2023-05-01T08:18:59.797Z,3.00
2023-05-01T08:24:12.945Z,2.80
2023-05-01T08:29:22.800Z,2.80
2023-05-01T08:34:32.546Z,2.50
2023-05-01T08:39:42.214Z,2.10
2023-05-01T08:44:54.626Z,2.20
2023-05-01T08:50:05.227Z,3.10
2023-05-01T08:55:17.921Z,2.90
2023-05-01T09:00:28.966Z,3.00
2023-05-01T09:05:39.150Z,3.40
2023-05-01T09:10:52.752Z,2.40
2023-05-01T09:16:02.791Z,2.20
2023-05-01T09:21:13.644Z,3.30
2023-05-01T09:26:24.017Z,2.50
2023-05-01T09:31:35.260Z,3.60
2023-05-01T09:36:49.147Z,3.20
2023-05-01T09:41:59.345Z,2.90
2023-05-01T09:47:09.693Z,3.00
2023-05-01T09:52:19.454Z,2.60
2023-05-01T09:57:43.202Z,3.60
2023-05-01T10:02:53.825Z,3.70
2023-05-01T10:08:10.598Z,2.40
2023-05-01T10:13:20.905Z,2.90
2023-05-01T10:18:31.526Z,3.90
2023-05-01T10:23:41.544Z,3.80
2023-05-01T10:28:52.916Z,2.90
2023-05-01T10:34:03.285Z,3.70
2023-05-01T10:39:37.176Z,2.60
2023-05-01T10:44:48.324Z,2.80
2023-05-01T10:50:12.285Z,2.60
2023-05-01T10:55:43.904Z,1.90
2023-05-01T11:01:34.176Z,2.10
2023-05-01T11:07:19.731Z,2.70
2023-05-01T11:12:54.059Z,1.80
2023-05-01T11:18:06.437Z,2.40
2023-05-01T11:23:24.131Z,2.30
2023-05-01T11:28:37.283Z,2.40
2023-05-01T11:33:46.956Z,2.20
2023-05-01T11:38:58.756Z,2.30
2023-05-01T11:44:08.852Z,2.50
2023-05-01T11:49:27.876Z,2.10
2023-05-01T11:54:52.827Z,2.20
2023-05-01T12:00:02.578Z,2.30
2023-05-01T12:05:23.777Z,2.00
2023-05-01T12:10:35.343Z,2.60
2023-05-01T12:15:49.166Z,2.40
2023-05-01T12:20:59.807Z,2.10
2023-05-01T12:26:24.001Z,1.50
2023-05-01T12:31:35.258Z,2.20
2023-05-01T12:36:54.137Z,2.10
2023-05-01T12:42:04.191Z,2.30
2023-05-01T12:47:15.690Z,1.80
2023-05-01T12:52:31.758Z,2.10
2023-05-01T12:57:55.245Z,2.20
2023-05-01T13:03:10.162Z,2.20
2023-05-01T13:08:28.210Z,2.30
2023-05-01T13:13:40.234Z,2.90
2023-05-01T13:18:51.936Z,1.90
2023-05-01T13:24:04.040Z,1.80
2023-05-01T13:29:19.114Z,2.00
2023-05-01T13:34:33.476Z,1.80
2023-05-01T13:39:46.984Z,2.20
2023-05-01T13:44:59.222Z,2.50
2023-05-01T13:50:14.638Z,2.20
2023-05-01T13:55:26.046Z,2.20
2023-05-01T14:00:36.731Z,2.20
2023-05-01T14:05:47.271Z,2.10
2023-05-01T14:10:57.118Z,2.10
2023-05-01T14:16:12.031Z,2.20
2023-05-01T14:21:23.081Z,2.10
2023-05-01T14:26:34.779Z,2.10
2023-05-01T14:31:46.290Z,2.30
2023-05-01T14:36:58.622Z,2.40
2023-05-01T14:42:09.949Z,1.90
2023-05-01T14:47:23.635Z,2.90
2023-05-01T14:52:33.764Z,2.50
2023-05-01T14:57:43.532Z,2.40
2023-05-01T15:02:54.031Z,1.90
2023-05-01T15:08:04.929Z,1.90
2023-05-01T15:13:14.752Z,2.20
2023-05-01T15:18:25.385Z,2.00
2023-05-01T15:23:37.351Z,1.90
2023-05-01T15:28:47.166Z,2.30
2023-05-01T15:33:57.736Z,2.10
2023-05-01T15:39:13.709Z,2.70
2023-05-01T15:44:23.503Z,2.50
2023-05-01T15:49:33.552Z,2.50
2023-05-01T15:54:43.507Z,3.00
2023-05-01T15:59:56.233Z,2.80
2023-05-01T16:05:06.569Z,2.70
2023-05-01T16:10:17.258Z,2.80
2023-05-01T16:15:27.240Z,2.90
2023-05-01T16:20:46.155Z,2.70
2023-05-01T16:25:56.217Z,2.90
2023-05-01T16:31:16.015Z,2.70
2023-05-01T16:36:38.295Z,2.70
2023-05-01T16:41:51.190Z,2.70
2023-05-01T16:47:03.769Z,2.70
2023-05-01T16:52:15.369Z,2.50
2023-05-01T16:57:25.314Z,2.40
2023-05-01T17:02:37.291Z,3.30
2023-05-01T17:07:47.128Z,2.40
2023-05-01T17:12:56.942Z,2.60
2023-05-01T17:18:07.323Z,2.90
2023-05-01T17:23:17.531Z,2.70
2023-05-01T17:28:27.528Z,2.50
2023-05-01T17:33:37.506Z,2.60
2023-05-01T17:38:47.441Z,2.70
2023-05-01T17:43:57.494Z,2.90
2023-05-01T17:49:07.884Z,3.50
2023-05-01T17:54:18.079Z,3.60
2023-05-01T17:59:30.962Z,11.90
2023-05-01T18:04:40.967Z,10.80
2023-05-01T18:09:50.861Z,5.50
2023-05-01T18:15:01.164Z,3.70
2023-05-01T18:20:13.166Z,3.30
2023-05-01T18:25:23.413Z,3.00
2023-05-01T18:30:33.317Z,3.00
2023-05-01T18:35:45.247Z,2.90
2023-05-01T18:40:55.004Z,3.60
2023-05-01T18:46:04.923Z,7.50
2023-05-01T18:51:15.856Z,9.90
2023-05-01T18:56:27.894Z,5.90
2023-05-01T19:01:38.436Z,3.80
2023-05-01T19:06:48.157Z,4.20
2023-05-01T19:11:57.930Z,4.20
2023-05-01T19:17:07.600Z,5.50
2023-05-01T19:22:18.457Z,5.80
2023-05-01T19:27:28.292Z,5.90
2023-05-01T19:32:38.658Z,5.60
2023-05-01T19:37:50.123Z,4.10
2023-05-01T19:43:00.585Z,4.70
2023-05-01T19:48:11.006Z,3.90
2023-05-01T19:53:21.308Z,3.50
2023-05-01T19:58:31.340Z,4.30
2023-05-01T20:03:41.456Z,3.70
2023-05-01T20:08:51.624Z,4.10
2023-05-01T20:14:03.767Z,4.20
2023-05-01T20:19:16.678Z,4.60
2023-05-01T20:24:26.897Z,3.90
2023-05-01T20:29:36.635Z,4.00
2023-05-01T20:34:46.620Z,3.70
2023-05-01T20:39:56.561Z,3.50
2023-05-01T20:45:07.919Z,3.40
2023-05-01T20:50:18.456Z,4.20
2023-05-01T20:55:28.446Z,3.40
2023-05-01T21:00:38.472Z,3.60
2023-05-01T21:05:48.373Z,3.70
2023-05-01T21:10:58.328Z,3.80
2023-05-01T21:16:16.054Z,4.20
2023-05-01T21:21:27.278Z,3.70
2023-05-01T21:26:38.579Z,3.10
2023-05-01T21:31:49.268Z,3.90
2023-05-01T21:36:59.343Z,4.00
2023-05-01T21:42:09.853Z,3.20
2023-05-01T21:47:20.390Z,3.80
2023-05-01T21:52:31.992Z,3.30
2023-05-01T21:57:42.852Z,3.20
2023-05-01T22:02:53.415Z,3.80
2023-05-01T22:08:03.757Z,2.80
2023-05-01T22:13:13.590Z,3.40
2023-05-01T22:18:23.379Z,2.90
2023-05-01T22:23:33.215Z,3.00
2023-05-01T22:28:43.006Z,3.30
2023-05-01T22:33:53.761Z,3.00
2023-05-01T22:39:04.344Z,2.10
2023-05-01T22:44:14.417Z,2.70
2023-05-01T22:49:24.483Z,3.10
2023-05-01T22:54:34.334Z,2.70
2023-05-01T22:59:45.915Z,3.10
2023-05-01T23:04:55.840Z,2.30
2023-05-01T23:10:06.336Z,2.90
2023-05-01T23:15:19.654Z,2.30
2023-05-01T23:20:29.795Z,3.40
2023-05-01T23:25:45.602Z,2.60
2023-05-01T23:31:00.188Z,2.50
2023-05-01T23:36:13.174Z,2.60
2023-05-01T23:41:23.074Z,2.40
2023-05-01T23:46:33.020Z,2.10
2023-05-01T23:51:43.298Z,2.00
2023-05-01T23:56:52.869Z,3.40
